sensor_id;sensor_type;location;lat;lon;timestamp;P1;P2;P0
50866;PMS7003;36839;51.946;21.002;2022-12-18T00:01:30;41.75;35.50;20.25
50866;PMS7003;36839;51.946;21.002;2022-12-18T00:03:56;51.75;38.75;22.50
50866;PMS7003;36839;51.946;21.002;2022-12-18T00:06:29;46.50;34.50;22.50
50866;PMS7003;36839;51.946;21.002;2022-12-18T00:08:58;51.50;38.75;24.00
50866;PMS7003;36839;51.946;21.002;2022-12-18T00:11:28;47.75;33.00;19.25
50866;PMS7003;36839;51.946;21.002;2022-12-18T00:13:58;43.50;36.50;21.25
50866;PMS7003;36839;51.946;21.002;2022-12-18T00:16:27;46.25;35.00;22.00
50866;PMS7003;36839;51.946;21.002;2022-12-18T00:18:56;48.00;37.25;25.00
50866;PMS7003;36839;51.946;21.002;2022-12-18T00:21:25;46.50;39.00;23.75
50866;PMS7003;36839;51.946;21.002;2022-12-18T00:23:57;43.00;36.75;25.75
50866;PMS7003;36839;51.946;21.002;2022-12-18T00:26:30;51.75;40.25;23.00
50866;PMS7003;36839;51.946;21.002;2022-12-18T00:29:00;32.00;26.50;11.25
50866;PMS7003;36839;51.946;21.002;2022-12-18T00:31:30;45.00;40.00;26.25
50866;PMS7003;36839;51.946;21.002;2022-12-18T00:34:01;30.25;29.75;18.75
50866;PMS7003;36839;51.946;21.002;2022-12-18T00:36:29;54.50;41.00;23.50
50866;PMS7003;36839;51.946;21.002;2022-12-18T00:38:59;49.75;37.75;23.50
50866;PMS7003;36839;51.946;21.002;2022-12-18T00:41:27;49.50;42.25;25.50
50866;PMS7003;36839;51.946;21.002;2022-12-18T00:44:16;42.00;35.25;23.25
50866;PMS7003;36839;51.946;21.002;2022-12-18T00:46:44;47.75;35.25;25.50
50866;PMS7003;36839;51.946;21.002;2022-12-18T00:49:15;39.50;30.00;16.25
50866;PMS7003;36839;51.946;21.002;2022-12-18T00:51:43;60.25;42.25;26.75
50866;PMS7003;36839;51.946;21.002;2022-12-18T00:54:11;45.25;34.00;19.00
50866;PMS7003;36839;51.946;21.002;2022-12-18T00:56:38;40.50;39.75;26.25
50866;PMS7003;36839;51.946;21.002;2022-12-18T00:59:06;55.25;39.50;24.75
50866;PMS7003;36839;51.946;21.002;2022-12-18T01:01:33;42.75;39.50;22.50
50866;PMS7003;36839;51.946;21.002;2022-12-18T01:04:02;40.25;35.75;22.25
50866;PMS7003;36839;51.946;21.002;2022-12-18T01:06:31;46.75;39.50;22.75
50866;PMS7003;36839;51.946;21.002;2022-12-18T01:08:59;63.75;44.00;28.25
50866;PMS7003;36839;51.946;21.002;2022-12-18T01:11:27;52.50;42.75;25.25
50866;PMS7003;36839;51.946;21.002;2022-12-18T01:13:55;46.25;38.75;22.50
50866;PMS7003;36839;51.946;21.002;2022-12-18T01:16:26;60.50;45.25;25.00
50866;PMS7003;36839;51.946;21.002;2022-12-18T01:18:56;50.75;39.25;25.25
50866;PMS7003;36839;51.946;21.002;2022-12-18T01:21:27;54.50;41.00;21.75
50866;PMS7003;36839;51.946;21.002;2022-12-18T01:23:56;50.50;42.50;25.00
50866;PMS7003;36839;51.946;21.002;2022-12-18T01:26:27;45.25;37.25;22.00
50866;PMS7003;36839;51.946;21.002;2022-12-18T01:28:57;45.75;38.75;25.00
50866;PMS7003;36839;51.946;21.002;2022-12-18T01:31:30;45.50;39.50;22.25
50866;PMS7003;36839;51.946;21.002;2022-12-18T01:33:55;34.25;21.75;8.75
50866;PMS7003;36839;51.946;21.002;2022-12-18T01:36:24;49.50;38.75;25.00
50866;PMS7003;36839;51.946;21.002;2022-12-18T01:38:54;50.00;38.25;23.75
50866;PMS7003;36839;51.946;21.002;2022-12-18T01:41:25;33.25;33.25;22.00
50866;PMS7003;36839;51.946;21.002;2022-12-18T01:43:56;53.50;41.50;22.75
50866;PMS7003;36839;51.946;21.002;2022-12-18T01:46:26;40.00;35.75;21.00
50866;PMS7003;36839;51.946;21.002;2022-12-18T01:48:54;59.50;42.50;26.00
50866;PMS7003;36839;51.946;21.002;2022-12-18T01:51:27;44.25;38.50;20.25
50866;PMS7003;36839;51.946;21.002;2022-12-18T01:53:55;44.50;35.25;22.50
50866;PMS7003;36839;51.946;21.002;2022-12-18T01:56:22;54.50;37.25;22.50
50866;PMS7003;36839;51.946;21.002;2022-12-18T02:01:31;54.50;42.75;22.00
50866;PMS7003;36839;51.946;21.002;2022-12-18T02:06:52;44.75;34.00;22.25
50866;PMS7003;36839;51.946;21.002;2022-12-18T02:09:31;47.50;37.25;22.00
50866;PMS7003;36839;51.946;21.002;2022-12-18T02:12:05;43.00;37.50;23.00
50866;PMS7003;36839;51.946;21.002;2022-12-18T02:14:38;42.50;33.75;20.50
50866;PMS7003;36839;51.946;21.002;2022-12-18T02:17:14;44.75;33.25;19.00
50866;PMS7003;36839;51.946;21.002;2022-12-18T02:19:57;44.75;37.75;25.25
50866;PMS7003;36839;51.946;21.002;2022-12-18T02:27:59;51.25;42.25;26.75
50866;PMS7003;36839;51.946;21.002;2022-12-18T02:30:33;43.50;32.75;22.25
50866;PMS7003;36839;51.946;21.002;2022-12-18T02:33:01;46.75;35.25;23.00
50866;PMS7003;36839;51.946;21.002;2022-12-18T02:35:31;48.75;32.75;20.25
50866;PMS7003;36839;51.946;21.002;2022-12-18T02:38:04;46.00;41.50;24.00
50866;PMS7003;36839;51.946;21.002;2022-12-18T02:40:31;48.50;40.00;26.50
50866;PMS7003;36839;51.946;21.002;2022-12-18T02:43:18;57.50;39.75;25.00
50866;PMS7003;36839;51.946;21.002;2022-12-18T02:45:57;52.75;38.25;23.00
50866;PMS7003;36839;51.946;21.002;2022-12-18T02:48:29;55.00;39.50;24.25
50866;PMS7003;36839;51.946;21.002;2022-12-18T02:51:18;58.50;40.50;23.25
50866;PMS7003;36839;51.946;21.002;2022-12-18T02:53:50;53.00;41.25;26.00
50866;PMS7003;36839;51.946;21.002;2022-12-18T02:56:35;45.50;37.50;23.75
50866;PMS7003;36839;51.946;21.002;2022-12-18T02:59:12;43.25;31.75;20.50
50866;PMS7003;36839;51.946;21.002;2022-12-18T03:01:43;50.50;35.75;18.25
50866;PMS7003;36839;51.946;21.002;2022-12-18T03:04:23;46.50;34.00;21.50
50866;PMS7003;36839;51.946;21.002;2022-12-18T03:06:54;60.00;36.00;20.50
50866;PMS7003;36839;51.946;21.002;2022-12-18T03:09:29;52.75;38.00;20.00
50866;PMS7003;36839;51.946;21.002;2022-12-18T03:12:12;41.25;34.00;19.25
50866;PMS7003;36839;51.946;21.002;2022-12-18T03:15:00;37.75;33.00;21.50
50866;PMS7003;36839;51.946;21.002;2022-12-18T03:17:25;46.00;32.50;20.75
50866;PMS7003;36839;51.946;21.002;2022-12-18T03:19:56;37.50;32.75;16.75
50866;PMS7003;36839;51.946;21.002;2022-12-18T03:22:24;47.50;33.75;20.00
50866;PMS7003;36839;51.946;21.002;2022-12-18T03:24:56;43.50;34.75;21.75
50866;PMS7003;36839;51.946;21.002;2022-12-18T03:27:29;46.75;31.75;19.25
50866;PMS7003;36839;51.946;21.002;2022-12-18T03:30:05;33.50;22.75;9.00
50866;PMS7003;36839;51.946;21.002;2022-12-18T03:32:44;46.50;34.50;21.50
50866;PMS7003;36839;51.946;21.002;2022-12-18T03:35:10;44.25;33.50;18.75
50866;PMS7003;36839;51.946;21.002;2022-12-18T03:37:43;53.00;40.25;22.00
50866;PMS7003;36839;51.946;21.002;2022-12-18T03:40:10;41.00;33.75;19.75
50866;PMS7003;36839;51.946;21.002;2022-12-18T03:42:44;47.75;37.25;22.25
50866;PMS7003;36839;51.946;21.002;2022-12-18T03:46:00;33.50;25.00;16.50
50866;PMS7003;36839;51.946;21.002;2022-12-18T03:48:01;46.75;31.50;19.75
50866;PMS7003;36839;51.946;21.002;2022-12-18T03:55:52;40.75;27.25;17.25
50866;PMS7003;36839;51.946;21.002;2022-12-18T03:58:22;49.25;34.75;21.25
50866;PMS7003;36839;51.946;21.002;2022-12-18T04:00:55;46.00;35.75;21.75
50866;PMS7003;36839;51.946;21.002;2022-12-18T04:03:30;56.00;42.75;21.75
50866;PMS7003;36839;51.946;21.002;2022-12-18T04:06:01;51.75;37.25;23.75
50866;PMS7003;36839;51.946;21.002;2022-12-18T04:08:29;43.25;32.50;17.50
50866;PMS7003;36839;51.946;21.002;2022-12-18T04:10:57;54.50;37.50;22.25
50866;PMS7003;36839;51.946;21.002;2022-12-18T04:13:28;46.75;35.25;20.25
50866;PMS7003;36839;51.946;21.002;2022-12-18T04:16:07;55.25;37.00;20.00
50866;PMS7003;36839;51.946;21.002;2022-12-18T04:18:37;35.50;29.00;12.75
50866;PMS7003;36839;51.946;21.002;2022-12-18T04:21:03;42.25;34.75;19.50
50866;PMS7003;36839;51.946;21.002;2022-12-18T04:23:30;42.25;34.50;22.00
50866;PMS7003;36839;51.946;21.002;2022-12-18T04:26:00;50.00;37.75;23.00
50866;PMS7003;36839;51.946;21.002;2022-12-18T04:28:29;44.50;35.50;22.25
50866;PMS7003;36839;51.946;21.002;2022-12-18T04:30:57;43.25;37.25;20.25
50866;PMS7003;36839;51.946;21.002;2022-12-18T04:33:24;47.50;32.75;16.25
50866;PMS7003;36839;51.946;21.002;2022-12-18T04:35:53;48.25;39.25;22.00
50866;PMS7003;36839;51.946;21.002;2022-12-18T04:38:22;49.00;36.50;22.00
50866;PMS7003;36839;51.946;21.002;2022-12-18T04:40:49;51.50;37.75;21.25
50866;PMS7003;36839;51.946;21.002;2022-12-18T04:43:18;42.75;36.50;21.50
50866;PMS7003;36839;51.946;21.002;2022-12-18T04:45:46;38.00;29.00;14.75
50866;PMS7003;36839;51.946;21.002;2022-12-18T04:48:13;37.50;32.50;19.50
50866;PMS7003;36839;51.946;21.002;2022-12-18T04:50:41;43.50;31.00;19.00
50866;PMS7003;36839;51.946;21.002;2022-12-18T04:53:07;47.50;34.25;20.25
50866;PMS7003;36839;51.946;21.002;2022-12-18T04:55:37;44.50;38.00;22.75
50866;PMS7003;36839;51.946;21.002;2022-12-18T04:58:05;38.75;30.00;18.50
50866;PMS7003;36839;51.946;21.002;2022-12-18T05:00:34;34.50;23.50;16.75
50866;PMS7003;36839;51.946;21.002;2022-12-18T05:03:02;48.50;33.50;17.75
50866;PMS7003;36839;51.946;21.002;2022-12-18T05:05:33;33.75;24.50;17.25
50866;PMS7003;36839;51.946;21.002;2022-12-18T05:08:03;42.75;32.75;19.25
50866;PMS7003;36839;51.946;21.002;2022-12-18T05:10:30;26.50;25.75;19.00
50866;PMS7003;36839;51.946;21.002;2022-12-18T05:12:59;50.00;38.00;20.75
50866;PMS7003;36839;51.946;21.002;2022-12-18T05:15:31;24.50;9.00;8.50
50866;PMS7003;36839;51.946;21.002;2022-12-18T05:18:02;39.25;36.00;19.75
50866;PMS7003;36839;51.946;21.002;2022-12-18T05:20:31;43.50;34.75;19.00
50866;PMS7003;36839;51.946;21.002;2022-12-18T05:23:03;38.75;29.25;15.25
50866;PMS7003;36839;51.946;21.002;2022-12-18T05:25:29;41.50;32.75;21.75
50866;PMS7003;36839;51.946;21.002;2022-12-18T05:27:59;36.25;31.25;19.25
50866;PMS7003;36839;51.946;21.002;2022-12-18T05:30:31;43.00;31.00;17.75
50866;PMS7003;36839;51.946;21.002;2022-12-18T05:33:01;40.25;33.25;21.00
50866;PMS7003;36839;51.946;21.002;2022-12-18T05:35:29;36.75;31.75;21.50
50866;PMS7003;36839;51.946;21.002;2022-12-18T05:37:57;34.75;26.25;15.25
50866;PMS7003;36839;51.946;21.002;2022-12-18T05:40:25;40.75;34.00;19.50
50866;PMS7003;36839;51.946;21.002;2022-12-18T05:42:53;37.00;28.25;16.25
50866;PMS7003;36839;51.946;21.002;2022-12-18T05:45:24;41.25;34.25;19.75
50866;PMS7003;36839;51.946;21.002;2022-12-18T05:47:52;43.00;34.75;21.75
50866;PMS7003;36839;51.946;21.002;2022-12-18T05:50:23;43.25;33.00;19.00
50866;PMS7003;36839;51.946;21.002;2022-12-18T05:52:49;39.00;32.00;18.25
50866;PMS7003;36839;51.946;21.002;2022-12-18T05:55:20;43.25;33.25;19.50
50866;PMS7003;36839;51.946;21.002;2022-12-18T05:57:46;48.25;40.00;22.50
50866;PMS7003;36839;51.946;21.002;2022-12-18T06:00:13;42.25;34.00;20.75
50866;PMS7003;36839;51.946;21.002;2022-12-18T06:02:42;42.00;34.00;21.00
50866;PMS7003;36839;51.946;21.002;2022-12-18T06:05:10;41.00;36.50;22.00
50866;PMS7003;36839;51.946;21.002;2022-12-18T06:07:38;38.50;27.75;17.25
50866;PMS7003;36839;51.946;21.002;2022-12-18T06:10:08;39.00;33.25;18.25
50866;PMS7003;36839;51.946;21.002;2022-12-18T06:12:36;48.25;40.00;23.00
50866;PMS7003;36839;51.946;21.002;2022-12-18T06:15:05;39.00;36.25;21.25
50866;PMS7003;36839;51.946;21.002;2022-12-18T06:17:34;37.75;29.00;16.50
50866;PMS7003;36839;51.946;21.002;2022-12-18T06:20:03;52.50;34.75;20.00
50866;PMS7003;36839;51.946;21.002;2022-12-18T06:22:32;43.00;33.25;18.75
50866;PMS7003;36839;51.946;21.002;2022-12-18T06:25:02;48.25;36.75;20.25
50866;PMS7003;36839;51.946;21.002;2022-12-18T06:27:30;52.25;37.00;22.25
50866;PMS7003;36839;51.946;21.002;2022-12-18T06:29:57;47.00;28.75;12.25
50866;PMS7003;36839;51.946;21.002;2022-12-18T06:32:26;42.50;35.00;19.50
50866;PMS7003;36839;51.946;21.002;2022-12-18T06:34:56;51.25;37.00;19.75
50866;PMS7003;36839;51.946;21.002;2022-12-18T06:37:23;39.75;35.75;22.50
50866;PMS7003;36839;51.946;21.002;2022-12-18T06:39:53;40.50;36.25;22.50
50866;PMS7003;36839;51.946;21.002;2022-12-18T06:42:21;24.50;20.50;8.75
50866;PMS7003;36839;51.946;21.002;2022-12-18T06:44:52;40.75;35.75;26.00
50866;PMS7003;36839;51.946;21.002;2022-12-18T06:47:23;60.75;45.50;30.00
50866;PMS7003;36839;51.946;21.002;2022-12-18T06:49:50;65.00;50.75;31.25
50866;PMS7003;36839;51.946;21.002;2022-12-18T06:52:17;52.25;43.25;29.50
50866;PMS7003;36839;51.946;21.002;2022-12-18T06:54:46;53.50;36.25;20.50
50866;PMS7003;36839;51.946;21.002;2022-12-18T06:57:17;66.00;51.50;32.25
50866;PMS7003;36839;51.946;21.002;2022-12-18T06:59:45;63.50;49.25;32.75
50866;PMS7003;36839;51.946;21.002;2022-12-18T07:02:12;73.75;56.00;35.00
50866;PMS7003;36839;51.946;21.002;2022-12-18T07:04:43;65.00;50.00;32.75
50866;PMS7003;36839;51.946;21.002;2022-12-18T07:07:10;67.50;49.50;33.00
50866;PMS7003;36839;51.946;21.002;2022-12-18T07:09:37;51.50;41.25;24.25
50866;PMS7003;36839;51.946;21.002;2022-12-18T07:12:07;61.75;49.00;29.75
50866;PMS7003;36839;51.946;21.002;2022-12-18T07:14:37;49.25;35.75;20.50
50866;PMS7003;36839;51.946;21.002;2022-12-18T07:17:06;58.50;48.75;31.75
50866;PMS7003;36839;51.946;21.002;2022-12-18T07:19:54;56.00;45.50;28.25
50866;PMS7003;36839;51.946;21.002;2022-12-18T07:22:22;62.00;49.00;29.75
50866;PMS7003;36839;51.946;21.002;2022-12-18T07:24:51;53.75;43.75;22.25
50866;PMS7003;36839;51.946;21.002;2022-12-18T07:27:18;84.75;61.00;35.00
50866;PMS7003;36839;51.946;21.002;2022-12-18T07:29:46;67.00;46.00;24.25
50866;PMS7003;36839;51.946;21.002;2022-12-18T07:32:15;64.75;48.25;31.25
50866;PMS7003;36839;51.946;21.002;2022-12-18T07:34:44;67.50;50.50;30.25
50866;PMS7003;36839;51.946;21.002;2022-12-18T07:37:16;53.25;44.25;24.75
50866;PMS7003;36839;51.946;21.002;2022-12-18T07:39:46;68.00;49.50;30.00
50866;PMS7003;36839;51.946;21.002;2022-12-18T07:42:16;55.75;44.75;27.75
50866;PMS7003;36839;51.946;21.002;2022-12-18T07:45:02;56.75;43.25;28.00
50866;PMS7003;36839;51.946;21.002;2022-12-18T07:47:27;48.75;40.00;24.00
50866;PMS7003;36839;51.946;21.002;2022-12-18T07:49:55;60.25;47.75;30.00
50866;PMS7003;36839;51.946;21.002;2022-12-18T07:52:23;57.00;44.25;29.00
50866;PMS7003;36839;51.946;21.002;2022-12-18T07:54:49;65.75;48.25;29.50
50866;PMS7003;36839;51.946;21.002;2022-12-18T07:57:19;64.50;48.75;30.00
50866;PMS7003;36839;51.946;21.002;2022-12-18T07:59:50;64.25;50.00;32.00
50866;PMS7003;36839;51.946;21.002;2022-12-18T08:02:21;54.75;44.00;28.50
50866;PMS7003;36839;51.946;21.002;2022-12-18T08:04:52;67.25;49.75;32.00
50866;PMS7003;36839;51.946;21.002;2022-12-18T08:07:23;63.75;49.00;29.75
50866;PMS7003;36839;51.946;21.002;2022-12-18T08:09:52;67.00;48.00;29.25
50866;PMS7003;36839;51.946;21.002;2022-12-18T08:12:23;62.50;50.00;33.25
50866;PMS7003;36839;51.946;21.002;2022-12-18T08:14:54;69.75;52.25;33.25
50866;PMS7003;36839;51.946;21.002;2022-12-18T08:17:21;70.00;50.25;30.50
50866;PMS7003;36839;51.946;21.002;2022-12-18T08:19:50;63.00;49.50;30.00
50866;PMS7003;36839;51.946;21.002;2022-12-18T08:22:18;58.50;43.00;25.25
50866;PMS7003;36839;51.946;21.002;2022-12-18T08:24:45;67.75;50.00;32.00
50866;PMS7003;36839;51.946;21.002;2022-12-18T08:27:13;62.25;49.25;30.25
50866;PMS7003;36839;51.946;21.002;2022-12-18T08:29:41;71.50;55.75;32.75
50866;PMS7003;36839;51.946;21.002;2022-12-18T08:32:08;70.25;48.50;29.50
50866;PMS7003;36839;51.946;21.002;2022-12-18T08:34:36;55.00;44.00;26.50
50866;PMS7003;36839;51.946;21.002;2022-12-18T08:37:05;65.00;49.25;30.00
50866;PMS7003;36839;51.946;21.002;2022-12-18T08:39:32;65.25;47.00;30.00
50866;PMS7003;36839;51.946;21.002;2022-12-18T08:42:00;64.50;47.50;30.25
50866;PMS7003;36839;51.946;21.002;2022-12-18T08:44:44;61.00;43.50;27.00
50866;PMS7003;36839;51.946;21.002;2022-12-18T08:47:13;61.25;47.25;28.50
50866;PMS7003;36839;51.946;21.002;2022-12-18T08:49:39;61.00;42.25;27.25
50866;PMS7003;36839;51.946;21.002;2022-12-18T08:52:06;62.50;45.25;28.25
50866;PMS7003;36839;51.946;21.002;2022-12-18T08:54:35;60.25;45.50;29.75
50866;PMS7003;36839;51.946;21.002;2022-12-18T08:57:05;55.00;42.50;27.25
50866;PMS7003;36839;51.946;21.002;2022-12-18T08:59:32;57.00;41.00;26.50
50866;PMS7003;36839;51.946;21.002;2022-12-18T09:02:00;47.50;41.75;24.25
50866;PMS7003;36839;51.946;21.002;2022-12-18T09:04:28;47.00;40.50;22.75
50866;PMS7003;36839;51.946;21.002;2022-12-18T09:06:56;61.25;46.25;29.00
50866;PMS7003;36839;51.946;21.002;2022-12-18T09:09:23;54.00;44.75;28.00
50866;PMS7003;36839;51.946;21.002;2022-12-18T09:11:52;98.75;70.00;42.25
50866;PMS7003;36839;51.946;21.002;2022-12-18T09:14:21;95.25;70.00;44.00
50866;PMS7003;36839;51.946;21.002;2022-12-18T09:16:50;79.50;61.25;38.25
50866;PMS7003;36839;51.946;21.002;2022-12-18T09:19:19;106.50;87.00;53.75
50866;PMS7003;36839;51.946;21.002;2022-12-18T09:21:49;81.25;62.25;39.25
50866;PMS7003;36839;51.946;21.002;2022-12-18T09:24:17;97.25;70.50;45.00
50866;PMS7003;36839;51.946;21.002;2022-12-18T09:26:46;86.50;67.50;42.50
50866;PMS7003;36839;51.946;21.002;2022-12-18T09:29:14;86.50;64.50;42.25
50866;PMS7003;36839;51.946;21.002;2022-12-18T09:31:45;79.75;56.00;37.50
50866;PMS7003;36839;51.946;21.002;2022-12-18T09:34:13;83.50;62.75;39.00
50866;PMS7003;36839;51.946;21.002;2022-12-18T09:36:42;86.50;65.25;40.00
50866;PMS7003;36839;51.946;21.002;2022-12-18T09:39:10;89.75;65.75;41.25
50866;PMS7003;36839;51.946;21.002;2022-12-18T09:44:30;73.00;54.00;31.25
50866;PMS7003;36839;51.946;21.002;2022-12-18T09:47:22;82.25;60.75;38.75
50866;PMS7003;36839;51.946;21.002;2022-12-18T09:49:51;104.25;73.00;43.00
50866;PMS7003;36839;51.946;21.002;2022-12-18T09:52:29;69.00;50.75;32.00
50866;PMS7003;36839;51.946;21.002;2022-12-18T09:55:03;83.25;61.75;37.00
50866;PMS7003;36839;51.946;21.002;2022-12-18T09:57:40;59.25;45.50;30.25
50866;PMS7003;36839;51.946;21.002;2022-12-18T10:02:49;67.00;47.50;31.25
50866;PMS7003;36839;51.946;21.002;2022-12-18T10:08:02;171.50;141.50;69.75
50866;PMS7003;36839;51.946;21.002;2022-12-18T10:11:05;179.00;134.25;68.75
50866;PMS7003;36839;51.946;21.002;2022-12-18T10:13:22;88.25;65.25;38.75
50866;PMS7003;36839;51.946;21.002;2022-12-18T10:21:25;54.25;42.00;29.00
50866;PMS7003;36839;51.946;21.002;2022-12-18T10:26:43;101.75;72.75;43.25
50866;PMS7003;36839;51.946;21.002;2022-12-18T10:29:13;81.25;59.00;33.75
50866;PMS7003;36839;51.946;21.002;2022-12-18T10:31:44;76.25;60.00;38.50
50866;PMS7003;36839;51.946;21.002;2022-12-18T10:34:11;63.00;43.25;24.25
50866;PMS7003;36839;51.946;21.002;2022-12-18T10:36:41;70.25;52.50;32.25
50866;PMS7003;36839;51.946;21.002;2022-12-18T10:39:15;72.00;49.50;29.75
50866;PMS7003;36839;51.946;21.002;2022-12-18T10:41:49;72.25;52.00;30.25
50866;PMS7003;36839;51.946;21.002;2022-12-18T10:44:18;61.25;48.25;29.25
50866;PMS7003;36839;51.946;21.002;2022-12-18T10:46:49;57.25;46.25;30.25
50866;PMS7003;36839;51.946;21.002;2022-12-18T10:49:29;62.25;44.75;29.50
50866;PMS7003;36839;51.946;21.002;2022-12-18T10:54:50;53.25;42.75;25.00
50866;PMS7003;36839;51.946;21.002;2022-12-18T10:57:32;56.00;41.50;25.50
50866;PMS7003;36839;51.946;21.002;2022-12-18T11:00:20;42.00;41.25;24.50
50866;PMS7003;36839;51.946;21.002;2022-12-18T11:02:57;61.50;43.50;26.00
50866;PMS7003;36839;51.946;21.002;2022-12-18T11:05:26;59.50;44.50;27.25
50866;PMS7003;36839;51.946;21.002;2022-12-18T11:07:54;64.00;48.50;31.25
50866;PMS7003;36839;51.946;21.002;2022-12-18T11:10:23;55.00;42.50;25.75
50866;PMS7003;36839;51.946;21.002;2022-12-18T11:12:53;77.00;60.75;38.50
50866;PMS7003;36839;51.946;21.002;2022-12-18T11:15:27;67.50;54.25;34.25
50866;PMS7003;36839;51.946;21.002;2022-12-18T11:18:01;74.00;57.50;35.75
50866;PMS7003;36839;51.946;21.002;2022-12-18T11:20:30;61.00;44.25;30.25
50866;PMS7003;36839;51.946;21.002;2022-12-18T11:23:10;57.50;42.00;23.25
50866;PMS7003;36839;51.946;21.002;2022-12-18T11:25:35;49.75;40.75;24.50
50866;PMS7003;36839;51.946;21.002;2022-12-18T11:28:04;50.75;39.75;24.25
50866;PMS7003;36839;51.946;21.002;2022-12-18T11:30:34;58.00;44.75;23.50
50866;PMS7003;36839;51.946;21.002;2022-12-18T11:35:58;54.50;42.50;21.25
50866;PMS7003;36839;51.946;21.002;2022-12-18T11:38:30;53.75;45.00;27.00
50866;PMS7003;36839;51.946;21.002;2022-12-18T11:41:24;57.50;40.00;24.75
50866;PMS7003;36839;51.946;21.002;2022-12-18T11:44:24;52.50;42.75;24.75
50866;PMS7003;36839;51.946;21.002;2022-12-18T11:47:04;45.25;41.25;23.75
50866;PMS7003;36839;51.946;21.002;2022-12-18T11:49:33;65.00;52.50;29.25
50866;PMS7003;36839;51.946;21.002;2022-12-18T11:52:21;86.50;60.00;38.00
50866;PMS7003;36839;51.946;21.002;2022-12-18T11:54:52;76.25;55.75;36.25
50866;PMS7003;36839;51.946;21.002;2022-12-18T12:00:20;71.50;55.75;32.25
50866;PMS7003;36839;51.946;21.002;2022-12-18T12:06:10;68.25;48.75;31.25
50866;PMS7003;36839;51.946;21.002;2022-12-18T12:08:59;64.00;49.50;30.25
50866;PMS7003;36839;51.946;21.002;2022-12-18T12:19:53;70.75;49.75;29.25
50866;PMS7003;36839;51.946;21.002;2022-12-18T12:36:01;59.75;44.25;27.75
50866;PMS7003;36839;51.946;21.002;2022-12-18T12:38:46;54.00;41.50;23.75
50866;PMS7003;36839;51.946;21.002;2022-12-18T12:41:18;52.75;41.50;27.00
50866;PMS7003;36839;51.946;21.002;2022-12-18T12:44:07;50.75;37.50;22.50
50866;PMS7003;36839;51.946;21.002;2022-12-18T12:46:37;58.00;40.00;23.50
50866;PMS7003;36839;51.946;21.002;2022-12-18T12:49:10;61.75;41.25;25.75
50866;PMS7003;36839;51.946;21.002;2022-12-18T12:51:41;91.75;65.25;37.50
50866;PMS7003;36839;51.946;21.002;2022-12-18T12:54:18;65.00;49.00;30.00
50866;PMS7003;36839;51.946;21.002;2022-12-18T12:56:50;54.75;40.25;24.25
50866;PMS7003;36839;51.946;21.002;2022-12-18T13:02:22;45.25;37.25;25.50
50866;PMS7003;36839;51.946;21.002;2022-12-18T13:07:56;52.75;37.25;24.25
50866;PMS7003;36839;51.946;21.002;2022-12-18T13:10:31;50.00;42.00;26.50
50866;PMS7003;36839;51.946;21.002;2022-12-18T13:12:57;52.50;37.00;21.00
50866;PMS7003;36839;51.946;21.002;2022-12-18T13:15:40;41.00;36.50;23.50
50866;PMS7003;36839;51.946;21.002;2022-12-18T13:18:21;56.75;43.50;26.50
50866;PMS7003;36839;51.946;21.002;2022-12-18T13:23:35;50.75;40.25;22.25
50866;PMS7003;36839;51.946;21.002;2022-12-18T13:31:15;55.50;34.50;22.50
50866;PMS7003;36839;51.946;21.002;2022-12-18T13:36:53;63.75;47.00;28.50
50866;PMS7003;36839;51.946;21.002;2022-12-18T13:41:52;53.50;44.00;26.25
50866;PMS7003;36839;51.946;21.002;2022-12-18T13:46:55;44.00;40.50;24.25
50866;PMS7003;36839;51.946;21.002;2022-12-18T13:49:41;56.00;39.25;20.25
50866;PMS7003;36839;51.946;21.002;2022-12-18T13:52:33;60.25;46.25;29.25
50866;PMS7003;36839;51.946;21.002;2022-12-18T13:54:58;60.00;40.25;25.25
50866;PMS7003;36839;51.946;21.002;2022-12-18T13:59:55;50.00;40.00;25.50
50866;PMS7003;36839;51.946;21.002;2022-12-18T14:02:26;54.50;42.00;26.75
50866;PMS7003;36839;51.946;21.002;2022-12-18T14:04:54;97.25;73.00;47.25
50866;PMS7003;36839;51.946;21.002;2022-12-18T14:07:24;67.00;52.25;32.50
50866;PMS7003;36839;51.946;21.002;2022-12-18T14:09:53;58.50;42.50;27.25
50866;PMS7003;36839;51.946;21.002;2022-12-18T14:12:29;63.00;47.50;30.00
50866;PMS7003;36839;51.946;21.002;2022-12-18T14:20:28;53.75;41.00;23.00
50866;PMS7003;36839;51.946;21.002;2022-12-18T14:22:59;54.00;38.75;23.50
50866;PMS7003;36839;51.946;21.002;2022-12-18T14:25:27;51.75;40.75;23.50
50866;PMS7003;36839;51.946;21.002;2022-12-18T14:28:17;54.50;42.50;24.75
50866;PMS7003;36839;51.946;21.002;2022-12-18T14:30:37;49.25;41.25;23.50
50866;PMS7003;36839;51.946;21.002;2022-12-18T14:33:10;52.50;43.00;27.00
50866;PMS7003;36839;51.946;21.002;2022-12-18T14:35:41;45.00;31.50;19.75
50866;PMS7003;36839;51.946;21.002;2022-12-18T14:38:10;61.75;41.75;26.75
50866;PMS7003;36839;51.946;21.002;2022-12-18T14:40:56;52.25;37.25;23.25
50866;PMS7003;36839;51.946;21.002;2022-12-18T14:43:28;56.00;41.25;25.00
50866;PMS7003;36839;51.946;21.002;2022-12-18T14:46:01;55.25;44.25;28.50
50866;PMS7003;36839;51.946;21.002;2022-12-18T14:51:06;76.25;56.75;36.25
50866;PMS7003;36839;51.946;21.002;2022-12-18T14:53:42;62.00;49.75;31.75
50866;PMS7003;36839;51.946;21.002;2022-12-18T14:56:17;65.25;47.25;30.25
50866;PMS7003;36839;51.946;21.002;2022-12-18T14:58:52;56.00;41.50;26.50
50866;PMS7003;36839;51.946;21.002;2022-12-18T15:01:37;54.00;42.50;24.25
50866;PMS7003;36839;51.946;21.002;2022-12-18T15:04:22;40.00;32.50;19.25
50866;PMS7003;36839;51.946;21.002;2022-12-18T15:07:02;56.25;44.75;27.00
50866;PMS7003;36839;51.946;21.002;2022-12-18T15:09:32;57.75;45.50;27.75
50866;PMS7003;36839;51.946;21.002;2022-12-18T15:12:00;54.75;47.25;29.25
50866;PMS7003;36839;51.946;21.002;2022-12-18T15:14:34;54.75;40.00;25.00
50866;PMS7003;36839;51.946;21.002;2022-12-18T15:17:27;41.50;32.50;20.25
50866;PMS7003;36839;51.946;21.002;2022-12-18T15:19:48;64.50;50.25;29.50
50866;PMS7003;36839;51.946;21.002;2022-12-18T15:22:28;54.50;45.25;24.75
50866;PMS7003;36839;51.946;21.002;2022-12-18T15:24:59;48.25;41.75;28.00
50866;PMS7003;36839;51.946;21.002;2022-12-18T15:27:31;57.50;44.75;25.50
50866;PMS7003;36839;51.946;21.002;2022-12-18T15:30:11;53.25;40.75;26.25
50866;PMS7003;36839;51.946;21.002;2022-12-18T15:32:41;66.75;43.00;25.25
50866;PMS7003;36839;51.946;21.002;2022-12-18T15:37:42;33.50;33.50;24.75
50866;PMS7003;36839;51.946;21.002;2022-12-18T15:40:12;46.00;39.50;23.25